Time;durP1;ratioP1;P1;durP2;ratioP2;P2;SDS_P1;SDS_P2;PMS_P1;PMS_P2;Temp;Humidity;BMP_temperature;BMP_pressure;BME280_temperature;BME280_humidity;BME280_pressure;Samples;Min_cycle;Max_cycle;Signal;HPM_P1;HPM_P2
2022/07/22 00:01:21;;;;;;;8.90;4.55;;;;;;;23.12;48.26;98794.22;5054605;28;20558;-47
2022/07/22 00:03:47;;;;;;;6.35;3.70;;;;;;;23.13;48.61;98795.81;5054853;28;20052;-47
2022/07/22 00:06:13;;;;;;;50.40;7.13;;;;;;;23.13;48.45;98785.88;5036583;28;20519;-49
2022/07/22 00:08:39;;;;;;;12.38;4.53;;;;;;;23.15;47.96;98793.66;5054406;28;20032;-48
2022/07/22 00:11:06;;;;;;;6.75;4.28;;;;;;;23.13;48.50;98790.47;5054427;28;20070;-49
2022/07/22 00:13:31;;;;;;;9.18;3.80;;;;;;;23.09;48.78;98786.75;5054401;28;20429;-50
2022/07/22 00:15:57;;;;;;;5.07;4.05;;;;;;;23.00;48.82;98783.03;5036412;28;20070;-49
2022/07/22 00:18:23;;;;;;;8.35;4.03;;;;;;;22.90;48.75;98784.72;5054307;28;20021;-49
2022/07/22 00:20:49;;;;;;;7.50;3.92;;;;;;;22.86;48.84;98789.03;5032556;28;20087;-49
2022/07/22 00:23:14;;;;;;;7.57;3.47;;;;;;;22.91;49.05;98785.50;5036275;28;20055;-49
2022/07/22 00:25:40;;;;;;;8.55;4.50;;;;;;;22.90;49.09;98783.91;5054237;28;20031;-50
2022/07/22 00:28:06;;;;;;;10.07;4.75;;;;;;;22.93;49.22;98784.13;5036263;28;20028;-49
2022/07/22 00:30:32;;;;;;;8.95;4.20;;;;;;;22.96;49.21;98785.47;5054009;28;20522;-49
2022/07/22 00:32:57;;;;;;;11.82;4.10;;;;;;;22.98;48.92;98782.50;5036187;28;20060;-50
2022/07/22 00:35:23;;;;;;;10.68;4.63;;;;;;;22.97;48.92;98783.59;5053968;28;20074;-49
2022/07/22 00:37:49;;;;;;;7.20;3.95;;;;;;;22.94;49.35;98772.38;5053970;28;20528;-50
2022/07/22 00:40:14;;;;;;;7.35;4.13;;;;;;;22.96;49.33;98782.81;5036020;28;20570;-48
2022/07/22 00:42:40;;;;;;;9.68;4.60;;;;;;;22.96;49.14;98768.59;5035938;28;20033;-50
2022/07/22 00:45:07;;;;;;;4.88;3.63;;;;;;;22.93;49.30;98778.00;5053791;28;20017;-48
2022/07/22 00:47:35;;;;;;;7.60;4.32;;;;;;;22.83;49.44;98775.41;5035861;28;20529;-49
2022/07/22 00:50:02;;;;;;;7.15;4.53;;;;;;;22.69;49.89;98773.34;5053613;28;20036;-49
2022/07/22 00:52:28;;;;;;;7.13;4.40;;;;;;;22.57;50.35;98774.75;5053996;28;20017;-49
2022/07/22 00:54:55;;;;;;;6.47;4.18;;;;;;;22.47;50.39;98768.38;5035741;28;20402;-48
2022/07/22 00:57:23;;;;;;;9.05;5.18;;;;;;;22.38;50.81;98761.25;5052804;28;20074;-48
2022/07/22 00:59:49;;;;;;;6.38;4.38;;;;;;;22.23;51.35;98760.19;5035681;28;20033;-49
2022/07/22 01:02:15;;;;;;;5.22;3.80;;;;;;;22.06;51.46;98770.44;5035568;28;20021;-49
2022/07/22 01:04:41;;;;;;;8.98;4.18;;;;;;;22.00;52.37;98764.31;5035521;28;20116;-49
2022/07/22 01:07:06;;;;;;;9.63;4.60;;;;;;;21.83;52.58;98761.97;5035466;28;20039;-49
2022/07/22 01:09:33;;;;;;;10.30;5.00;;;;;;;21.66;53.46;98764.16;5035346;28;20021;-49
2022/07/22 01:11:58;;;;;;;4.90;3.60;;;;;;;21.57;53.51;98766.59;5035425;28;20024;-50
2022/07/22 01:14:27;;;;;;;8.40;5.03;;;;;;;21.56;54.11;98773.00;5035353;28;20411;-49
2022/07/22 01:16:52;;;;;;;9.23;4.65;;;;;;;21.47;54.06;98769.25;5035290;28;20024;-49
2022/07/22 01:19:18;;;;;;;6.68;4.15;;;;;;;21.47;53.84;98764.72;5038599;28;20048;-48
2022/07/22 01:21:44;;;;;;;6.68;4.47;;;;;;;21.45;53.84;98766.88;5073419;28;20142;-49
2022/07/22 01:24:09;;;;;;;9.02;4.57;;;;;;;21.45;53.92;98766.06;5073045;28;20024;-48
2022/07/22 01:26:35;;;;;;;8.27;4.55;;;;;;;21.42;53.82;98766.56;5054959;28;20032;-49
2022/07/22 01:29:01;;;;;;;8.60;4.30;;;;;;;21.39;54.05;98765.25;5072969;28;20332;-49
2022/07/22 01:31:27;;;;;;;7.18;4.43;;;;;;;21.40;53.97;98763.38;5055015;28;20036;-49
2022/07/22 01:33:54;;;;;;;9.43;4.57;;;;;;;21.42;54.03;98766.56;5072880;28;20020;-49
2022/07/22 01:36:20;;;;;;;6.72;4.57;;;;;;;21.38;54.14;98771.66;5072819;28;20025;-49
2022/07/22 01:38:46;;;;;;;4.90;4.03;;;;;;;21.39;54.05;98773.25;5072813;28;20012;-49
2022/07/22 01:41:12;;;;;;;7.93;4.78;;;;;;;21.41;53.77;98771.13;5072927;28;20494;-49
2022/07/22 01:43:38;;;;;;;9.27;4.78;;;;;;;21.41;54.12;98776.47;5054697;28;20123;-49
2022/07/22 01:46:04;;;;;;;7.47;4.35;;;;;;;21.34;54.23;98765.25;5072627;28;20035;-48
2022/07/22 01:48:30;;;;;;;7.28;4.70;;;;;;;21.27;54.67;98772.72;5054601;28;20119;-49
2022/07/22 01:50:56;;;;;;;7.85;4.80;;;;;;;21.19;54.84;98765.25;5054517;28;20062;-49
2022/07/22 01:53:22;;;;;;;7.90;4.05;;;;;;;21.15;55.12;98778.34;5054561;28;20094;-48
2022/07/22 01:55:48;;;;;;;8.10;4.35;;;;;;;21.11;55.08;98779.94;5072400;28;20032;-49
2022/07/22 01:58:13;;;;;;;5.32;4.40;;;;;;;21.04;55.15;98785.53;5072398;28;20486;-49
2022/07/22 02:00:39;;;;;;;7.80;4.57;;;;;;;21.02;55.21;98781.53;5054569;28;20025;-49
2022/07/22 02:03:06;;;;;;;7.00;4.25;;;;;;;20.99;55.17;98784.72;5072269;28;20032;-49
2022/07/22 02:05:32;;;;;;;7.60;4.68;;;;;;;20.95;55.55;98781.81;5072283;28;20065;-49
2022/07/22 02:08:06;;;;;;;6.13;4.28;;;;;;;20.95;55.84;98779.94;5072486;28;20100;-49
2022/07/22 02:10:32;;;;;;;11.38;8.95;;;;;;;20.92;55.72;98777.78;5054165;28;20042;-48
2022/07/22 02:12:58;;;;;;;6.70;4.28;;;;;;;20.86;55.92;98783.38;5072420;28;20020;-47
2022/07/22 02:15:25;;;;;;;7.85;4.72;;;;;;;20.79;56.16;98778.31;5054589;28;20029;-47
2022/07/22 02:17:51;;;;;;;8.90;4.55;;;;;;;20.75;56.25;98783.38;5072120;28;20482;-47
2022/07/22 02:20:16;;;;;;;5.70;4.40;;;;;;;20.72;56.30;98772.44;5071787;28;20106;-48
2022/07/22 02:22:42;;;;;;;5.68;4.53;;;;;;;20.71;56.54;98781.50;5072060;28;20100;-47
2022/07/22 02:25:08;;;;;;;6.55;4.60;;;;;;;20.72;56.28;98785.78;5071956;28;20052;-48
2022/07/22 02:27:34;;;;;;;5.55;4.57;;;;;;;20.70;56.43;98780.69;5071982;28;20025;-48
2022/07/22 02:30:00;;;;;;;6.53;4.82;;;;;;;20.71;56.62;98784.19;5071873;28;20222;-47
2022/07/22 02:32:26;;;;;;;5.82;4.63;;;;;;;20.68;56.65;98780.16;5071911;28;20020;-47
2022/07/22 02:34:52;;;;;;;6.45;4.43;;;;;;;20.67;56.80;98777.78;5053917;28;20363;-47
2022/07/22 02:37:17;;;;;;;4.90;3.97;;;;;;;20.65;56.77;98786.03;5053838;28;20087;-47
2022/07/22 02:39:43;;;;;;;7.80;4.30;;;;;;;20.64;56.63;98779.09;5071827;28;20055;-47
2022/07/22 02:42:09;;;;;;;10.13;4.82;;;;;;;20.58;56.91;98774.78;5071795;28;20035;-48
2022/07/22 02:44:34;;;;;;;8.40;5.10;;;;;;;20.56;56.73;98787.56;5053800;28;20023;-48
2022/07/22 02:47:00;;;;;;;6.55;4.78;;;;;;;20.52;56.88;98781.97;5053683;28;20107;-48
2022/07/22 02:49:26;;;;;;;11.23;7.72;;;;;;;20.49;56.97;98771.84;5071717;28;20056;-47
2022/07/22 02:51:51;;;;;;;11.88;5.82;;;;;;;20.46;57.15;98772.34;5071735;28;20098;-47
2022/07/22 02:54:17;;;;;;;7.97;4.70;;;;;;;20.45;57.41;98777.97;5072004;28;20021;-47
2022/07/22 02:56:45;;;;;;;6.80;5.03;;;;;;;20.45;57.42;98775.28;5053692;28;20031;-48
2022/07/22 02:59:11;;;;;;;12.70;6.35;;;;;;;20.40;57.36;98772.59;5071684;28;20409;-48
2022/07/22 03:01:37;;;;;;;8.35;4.80;;;;;;;20.41;57.47;98779.56;5053766;28;20108;-46
2022/07/22 03:04:02;;;;;;;6.53;5.20;;;;;;;20.46;57.13;98777.69;5053501;28;20037;-46
2022/07/22 03:06:28;;;;;;;9.85;4.47;;;;;;;20.46;57.22;98783.00;5071577;28;20482;-47
2022/07/22 03:08:53;;;;;;;8.57;5.15;;;;;;;20.41;57.25;98784.88;5053477;28;20029;-46
2022/07/22 03:11:19;;;;;;;7.20;4.90;;;;;;;20.33;57.66;98786.19;5071565;28;20016;-48
2022/07/22 03:13:45;;;;;;;7.50;4.95;;;;;;;20.33;57.56;98778.19;5071773;28;20055;-48
2022/07/22 03:16:11;;;;;;;9.07;7.97;;;;;;;20.33;57.74;98786.19;5071669;28;20490;-47
2022/07/22 03:18:36;;;;;;;7.75;5.60;;;;;;;20.34;57.57;98785.09;5053590;28;20398;-47
2022/07/22 03:21:02;;;;;;;6.53;4.90;;;;;;;20.32;57.54;98787.22;5074097;28;20063;-47
2022/07/22 03:23:28;;;;;;;11.40;5.13;;;;;;;20.32;57.70;98790.72;5057427;28;20439;-48
2022/07/22 03:25:56;;;;;;;7.13;4.60;;;;;;;20.34;57.59;98793.09;5057256;28;20033;-48
2022/07/22 03:28:22;;;;;;;9.52;5.65;;;;;;;20.39;57.36;98792.34;5075297;28;20031;-48
2022/07/22 03:30:48;;;;;;;7.45;5.10;;;;;;;20.41;57.29;98788.34;5057097;28;20060;-47
2022/07/22 03:33:14;;;;;;;9.70;5.30;;;;;;;20.41;57.36;98791.00;5057149;28;20039;-48
2022/07/22 03:35:40;;;;;;;6.93;4.47;;;;;;;20.37;57.37;98789.13;5057357;28;20025;-48
2022/07/22 03:38:05;;;;;;;9.25;4.97;;;;;;;20.31;57.63;98791.78;5057033;28;20016;-47
2022/07/22 03:40:31;;;;;;;11.90;5.65;;;;;;;20.23;57.98;98794.16;5075006;28;20036;-49
2022/07/22 03:42:57;;;;;;;6.60;4.90;;;;;;;20.26;58.11;98796.28;5057013;28;20024;-48
2022/07/22 03:45:22;;;;;;;8.65;4.80;;;;;;;20.29;58.08;98791.22;5057161;28;20024;-47
2022/07/22 03:47:48;;;;;;;6.82;5.22;;;;;;;20.30;57.91;98790.19;5056939;28;20553;-47
2022/07/22 03:50:14;;;;;;;8.98;5.13;;;;;;;20.32;57.87;98787.22;5056755;28;20024;-47
2022/07/22 03:52:39;;;;;;;6.35;5.00;;;;;;;20.28;57.78;98796.81;5056878;28;20021;-47
2022/07/22 03:55:06;;;;;;;7.25;5.10;;;;;;;20.22;58.17;98787.19;5056726;28;20393;-47
2022/07/22 03:57:32;;;;;;;6.82;4.75;;;;;;;20.18;58.42;98786.91;5057030;28;20039;-48
2022/07/22 03:59:58;;;;;;;8.18;5.07;;;;;;;20.23;58.20;98791.47;5056678;28;20032;-49
2022/07/22 04:02:24;;;;;;;8.98;5.47;;;;;;;20.12;58.38;98788.78;5074643;28;20021;-49
2022/07/22 04:04:49;;;;;;;10.45;5.20;;;;;;;20.02;58.71;98790.56;5056617;28;20110;-49
2022/07/22 04:07:15;;;;;;;10.07;4.75;;;;;;;19.95;58.99;98780.16;5074544;28;20016;-48
2022/07/22 04:09:41;;;;;;;11.57;5.40;;;;;;;19.86;59.13;98779.88;5074471;28;20383;-48
2022/07/22 04:12:07;;;;;;;7.78;5.03;;;;;;;19.88;59.36;98782.25;5074436;28;20020;-48
2022/07/22 04:14:32;;;;;;;10.45;5.35;;;;;;;19.84;59.28;98783.81;5056482;28;20036;-49
2022/07/22 04:16:58;;;;;;;10.00;5.10;;;;;;;19.79;59.59;98781.16;5074393;28;20553;-50
2022/07/22 04:19:23;;;;;;;7.95;5.22;;;;;;;19.80;59.23;98780.91;5051675;28;20052;-49
2022/07/22 04:21:49;;;;;;;8.73;4.78;;;;;;;19.81;59.39;98779.03;5036380;28;20516;-49
2022/07/22 04:24:15;;;;;;;9.55;4.85;;;;;;;19.85;59.40;98780.13;5019898;28;20067;-48
2022/07/22 04:26:40;;;;;;;12.02;5.85;;;;;;;19.92;59.22;98786.00;5054190;28;20025;-49
2022/07/22 04:29:06;;;;;;;6.88;5.07;;;;;;;19.97;59.08;98791.38;5036127;28;20127;-49
2022/07/22 04:31:32;;;;;;;6.53;5.10;;;;;;;20.01;59.00;98789.78;5035013;28;20115;-49
2022/07/22 04:33:58;;;;;;;5.95;4.82;;;;;;;20.07;58.94;98791.41;5036154;28;20120;-49
2022/07/22 04:36:24;;;;;;;7.53;5.57;;;;;;;20.17;58.75;98795.19;5036121;28;20029;-49
2022/07/22 04:38:49;;;;;;;7.80;5.55;;;;;;;20.29;59.08;98793.91;5053990;28;20112;-48
2022/07/22 04:41:15;;;;;;;8.25;5.80;;;;;;;20.60;57.99;98796.69;5054132;28;20393;-49
2022/07/22 04:43:41;;;;;;;8.40;5.25;;;;;;;21.10;56.67;98789.00;5036042;28;20021;-49
2022/07/22 04:46:07;;;;;;;12.48;5.97;;;;;;;22.14;54.46;98793.94;5035946;28;20494;-49
2022/07/22 04:48:33;;;;;;;13.90;5.75;;;;;;;23.27;51.19;98788.72;5053790;28;20495;-49
2022/07/22 04:51:03;;;;;;;11.52;5.90;;;;;;;23.91;48.69;98784.09;5035784;28;20395;-49
2022/07/22 04:53:28;;;;;;;14.70;5.80;;;;;;;24.37;47.69;98781.94;5053734;28;20112;-49
2022/07/22 04:55:54;;;;;;;9.57;5.90;;;;;;;24.71;46.56;98782.56;5035705;28;20625;-50
2022/07/22 04:58:20;;;;;;;7.05;4.97;;;;;;;24.88;45.87;98783.94;5053654;28;20100;-49
2022/07/22 05:00:46;;;;;;;13.15;4.93;;;;;;;24.99;45.22;98776.50;5035589;28;20029;-49
2022/07/22 05:03:12;;;;;;;9.95;5.55;;;;;;;24.89;45.19;98786.31;5035641;28;20072;-49
2022/07/22 05:05:38;;;;;;;9.68;4.28;;;;;;;24.61;45.69;98782.72;5035672;28;20025;-49
2022/07/22 05:08:04;;;;;;;9.95;5.32;;;;;;;24.38;46.23;98784.31;5035511;28;20028;-49
2022/07/22 05:10:30;;;;;;;6.57;5.18;;;;;;;24.31;46.46;98782.00;5053293;28;20024;-49
2022/07/22 05:12:56;;;;;;;10.40;5.80;;;;;;;24.41;46.18;98781.06;5053331;28;20024;-48
2022/07/22 05:15:21;;;;;;;10.45;5.93;;;;;;;24.70;45.20;98782.84;5053317;28;20100;-49
2022/07/22 05:17:47;;;;;;;8.13;5.78;;;;;;;25.03;44.61;98785.56;5035340;28;20439;-49
2022/07/22 05:20:13;;;;;;;10.55;5.93;;;;;;;25.33;44.07;98778.13;5064087;28;20405;-48
2022/07/22 05:22:39;;;;;;;12.98;8.43;;;;;;;25.77;42.93;98779.47;5073155;28;20386;-48
2022/07/22 05:25:04;;;;;;;12.27;6.82;;;;;;;26.13;41.99;98776.91;5073080;28;20096;-49
2022/07/22 05:27:30;;;;;;;7.53;6.43;;;;;;;26.42;41.44;98773.06;5055070;28;20055;-49
2022/07/22 05:29:59;;;;;;;10.75;7.20;;;;;;;26.64;41.01;98770.44;5054957;28;20109;-49
2022/07/22 05:32:25;;;;;;;6.53;5.38;;;;;;;26.94;40.48;98775.41;5072892;28;20021;-47
2022/07/22 05:34:51;;;;;;;9.23;5.28;;;;;;;27.23;39.59;98773.09;5054832;28;20624;-47
2022/07/22 05:37:16;;;;;;;8.75;5.00;;;;;;;27.68;39.04;98769.50;5072700;28;20023;-49
2022/07/22 05:39:44;;;;;;;9.85;5.00;;;;;;;28.08;38.22;98766.78;5054777;28;20097;-48
2022/07/22 05:42:09;;;;;;;9.10;5.63;;;;;;;28.35;37.68;98765.72;5054606;28;20028;-47
2022/07/22 05:44:35;;;;;;;7.05;5.75;;;;;;;28.61;36.84;98762.28;5072560;28;20039;-50
2022/07/22 05:47:01;;;;;;;8.07;4.93;;;;;;;28.85;36.81;98765.28;5072596;28;20027;-49
2022/07/22 05:49:26;;;;;;;8.93;5.35;;;;;;;29.12;36.19;98765.25;5054618;28;20056;-49
2022/07/22 05:51:53;;;;;;;14.98;6.30;;;;;;;29.39;35.27;98759.47;5072540;28;20013;-49
2022/07/22 05:54:20;;;;;;;16.05;6.03;;;;;;;29.76;34.82;98767.13;5072583;28;20391;-49
2022/07/22 05:56:45;;;;;;;28.15;7.68;;;;;;;30.36;34.33;98766.00;5072456;28;20035;-49
2022/07/22 05:59:11;;;;;;;24.38;7.75;;;;;;;31.21;32.82;98762.09;5054474;28;20024;-50
2022/07/22 06:01:37;;;;;;;19.17;6.32;;;;;;;32.26;31.50;98766.25;5054447;28;20016;-49
2022/07/22 06:04:03;;;;;;;18.00;6.57;;;;;;;33.14;29.80;98763.69;5072361;28;20028;-50
2022/07/22 06:06:28;;;;;;;14.35;7.65;;;;;;;33.65;29.11;98765.75;5072277;28;20513;-50
2022/07/22 06:08:57;;;;;;;13.98;5.75;;;;;;;34.35;28.18;98773.19;5072186;28;20028;-48
2022/07/22 06:11:23;;;;;;;11.50;6.03;;;;;;;34.93;27.20;98763.41;5072225;28;20452;-49
2022/07/22 06:13:48;;;;;;;25.88;6.80;;;;;;;35.06;26.91;98766.78;5054246;28;20066;-49
2022/07/22 06:16:14;;;;;;;13.45;5.97;;;;;;;35.37;26.24;98766.56;5054166;28;20020;-49
2022/07/22 06:18:40;;;;;;;14.82;5.63;;;;;;;35.66;26.22;98755.34;5072310;28;20733;-49
2022/07/22 06:21:07;;;;;;;12.15;5.15;;;;;;;35.94;25.70;98758.53;5071815;28;20506;-49
2022/07/22 06:23:33;;;;;;;8.05;5.18;;;;;;;35.70;25.78;98762.47;5072028;28;20016;-49
2022/07/22 06:25:59;;;;;;;10.45;5.32;;;;;;;35.40;26.17;98757.66;5071993;28;20051;-50
2022/07/22 06:28:25;;;;;;;9.20;5.20;;;;;;;35.23;26.55;98757.34;5072015;28;20486;-49
2022/07/22 06:30:51;;;;;;;12.48;5.35;;;;;;;35.40;26.30;98760.38;5071841;28;20043;-50
2022/07/22 06:33:17;;;;;;;8.23;5.13;;;;;;;35.94;25.61;98755.78;5053978;28;20025;-48
2022/07/22 06:35:42;;;;;;;12.38;6.70;;;;;;;36.27;25.06;98757.03;5071882;28;20021;-48
2022/07/22 06:38:08;;;;;;;27.05;6.18;;;;;;;36.59;24.93;98753.91;5053839;28;20021;-48
2022/07/22 06:40:35;;;;;;;43.30;8.70;;;;;;;36.91;24.28;98758.97;5053817;28;20120;-48
2022/07/22 06:43:01;;;;;;;29.75;6.90;;;;;;;37.04;24.05;98759.47;5053748;28;20031;-49
2022/07/22 06:45:27;;;;;;;41.25;7.30;;;;;;;37.38;23.60;98765.69;5071682;28;20028;-48
2022/07/22 06:47:53;;;;;;;43.33;7.60;;;;;;;37.83;23.52;98762.91;5071781;28;20031;-49
2022/07/22 06:50:18;;;;;;;38.08;6.65;;;;;;;38.62;22.34;98755.91;5071704;28;20028;-48
2022/07/22 06:52:44;;;;;;;32.30;6.47;;;;;;;39.25;21.23;98753.69;5071668;28;20025;-49
2022/07/22 06:55:10;;;;;;;37.80;6.40;;;;;;;39.88;20.71;98745.81;5070987;28;20402;-50
2022/07/22 06:57:36;;;;;;;23.38;5.57;;;;;;;40.48;20.16;98746.81;5071717;28;20097;-51
2022/07/22 07:00:07;;;;;;;30.55;6.30;;;;;;;41.09;19.68;98745.66;5053590;28;20107;-51
2022/07/22 07:02:33;;;;;;;31.45;6.00;;;;;;;41.66;19.16;98749.97;5071667;28;20028;-50
2022/07/22 07:04:59;;;;;;;21.30;5.10;;;;;;;42.35;18.00;98750.78;5053608;28;20074;-50
2022/07/22 07:07:24;;;;;;;39.00;6.95;;;;;;;42.52;17.88;98751.78;5071562;28;20029;-49
2022/07/22 07:09:50;;;;;;;22.15;5.63;;;;;;;41.58;18.88;98746.47;5071452;28;20458;-50
2022/07/22 07:12:15;;;;;;;27.42;5.80;;;;;;;40.60;19.54;98759.34;5071534;28;20115;-50
2022/07/22 07:14:41;;;;;;;32.53;5.95;;;;;;;41.06;19.62;98758.28;5071494;28;20059;-49
2022/07/22 07:17:07;;;;;;;30.65;5.93;;;;;;;42.22;18.41;98750.56;5071464;28;20386;-50
2022/07/22 07:19:32;;;;;;;15.02;4.63;;;;;;;42.50;17.49;98754.16;5047672;28;20049;-50
2022/07/22 07:21:58;;;;;;;39.38;6.95;;;;;;;42.30;18.35;98745.75;5033529;28;20057;-49
2022/07/22 07:24:24;;;;;;;26.00;5.97;;;;;;;42.28;17.29;98740.66;5051420;28;20032;-50
2022/07/22 07:26:49;;;;;;;13.65;4.53;;;;;;;42.01;17.84;98732.25;5051225;28;20025;-50
2022/07/22 07:29:15;;;;;;;10.20;4.60;;;;;;;41.78;17.75;98734.91;5051245;28;20025;-50
2022/07/22 07:31:41;;;;;;;14.18;5.05;;;;;;;41.03;18.77;98726.06;5051283;28;20014;-49
2022/07/22 07:34:07;;;;;;;18.23;4.60;;;;;;;40.38;19.41;98722.88;5033533;28;20052;-50
2022/07/22 07:36:33;;;;;;;22.70;5.45;;;;;;;39.94;19.86;98727.78;5051428;28;20029;-50
2022/07/22 07:38:58;;;;;;;31.73;7.03;;;;;;;39.73;20.41;98727.78;5051291;28;20633;-48
2022/07/22 07:41:24;;;;;;;56.65;7.72;;;;;;;39.29;21.14;98729.75;5051226;28;20552;-48
2022/07/22 07:43:50;;;;;;;63.60;7.88;;;;;;;38.88;22.00;98726.59;5033357;28;20031;-50
2022/07/22 07:46:16;;;;;;;24.20;5.30;;;;;;;38.93;21.58;98732.44;5051162;28;20068;-50
2022/07/22 07:48:41;;;;;;;47.90;6.85;;;;;;;39.53;21.08;98722.69;5051220;28;20017;-50
2022/07/22 07:51:07;;;;;;;27.58;4.50;;;;;;;39.97;20.84;98720.69;5016801;28;20028;-50
2022/07/22 07:53:33;;;;;;;64.00;7.55;;;;;;;40.49;20.55;98729.13;5051137;28;20031;-48
2022/07/22 07:55:59;;;;;;;18.52;4.85;;;;;;;40.64;19.94;98723.53;5033218;28;20052;-49
2022/07/22 07:58:24;;;;;;;27.13;5.30;;;;;;;40.85;19.62;98725.41;5051131;28;20025;-48
2022/07/22 08:00:50;;;;;;;44.42;7.43;;;;;;;41.19;19.62;98719.28;5051081;28;20475;-50
2022/07/22 08:03:16;;;;;;;65.50;8.80;;;;;;;41.73;20.04;98722.34;5051066;28;20021;-49
2022/07/22 08:05:42;;;;;;;26.27;5.70;;;;;;;41.81;19.73;98718.31;5051563;28;20021;-49
2022/07/22 08:08:08;;;;;;;23.33;6.03;;;;;;;41.39;20.28;98722.25;5036716;28;20112;-49
2022/07/22 08:10:33;;;;;;;41.35;6.70;;;;;;;41.25;20.63;98717.66;5054407;28;20039;-50
2022/07/22 08:12:59;;;;;;;24.00;5.93;;;;;;;41.72;19.94;98721.56;5054540;28;20382;-50
2022/07/22 08:15:26;;;;;;;30.73;6.00;;;;;;;42.14;19.40;98712.44;5036539;28;20047;-50
2022/07/22 08:17:52;;;;;;;11.35;4.15;;;;;;;42.86;18.70;98713.09;5036449;28;20036;-49
2022/07/22 08:20:18;;;;;;;8.23;4.00;;;;;;;43.41;18.09;98713.78;5053292;28;20506;-49
2022/07/22 08:22:44;;;;;;;8.93;4.45;;;;;;;43.96;17.78;98713.56;5076303;28;20039;-49
2022/07/22 08:25:10;;;;;;;20.98;5.47;;;;;;;44.03;17.84;98713.41;5094564;28;20033;-50
2022/07/22 08:27:36;;;;;;;12.82;4.82;;;;;;;43.29;18.01;98711.63;5094420;28;20024;-48
2022/07/22 08:30:05;;;;;;;28.60;5.55;;;;;;;42.39;19.20;98712.13;5094371;28;20134;-49
2022/07/22 08:32:31;;;;;;;23.95;5.18;;;;;;;42.52;19.30;98713.13;5094398;28;20039;-51
2022/07/22 08:35:00;;;;;;;22.20;4.65;;;;;;;42.96;18.77;98705.03;5076156;28;20028;-50
2022/07/22 08:37:26;;;;;;;74.53;8.23;;;;;;;42.94;18.68;98696.38;5094297;28;20049;-48
2022/07/22 08:39:53;;;;;;;8.43;3.92;;;;;;;43.05;18.32;98703.31;5094236;28;20031;-48
2022/07/22 08:42:21;;;;;;;20.60;6.10;;;;;;;43.31;17.95;98706.47;5094430;28;20160;-49
2022/07/22 08:44:48;;;;;;;30.85;6.10;;;;;;;43.64;17.93;98695.59;5094164;28;20103;-50
2022/07/22 08:47:14;;;;;;;9.27;4.15;;;;;;;44.55;17.21;98698.13;5075885;28;20028;-50
2022/07/22 08:49:40;;;;;;;11.98;4.30;;;;;;;45.47;16.79;98693.53;5075793;28;20026;-49
2022/07/22 08:52:05;;;;;;;8.68;3.88;;;;;;;45.34;16.81;98696.22;5093998;28;20043;-49
2022/07/22 08:54:31;;;;;;;11.32;3.92;;;;;;;45.57;16.66;98687.69;5093971;28;20035;-49
2022/07/22 08:56:57;;;;;;;13.00;4.15;;;;;;;46.34;16.00;98689.91;5093915;28;20024;-50
2022/07/22 08:59:23;;;;;;;35.22;7.07;;;;;;;46.38;16.36;98687.78;5075737;28;20058;-53
2022/07/22 09:02:03;;;;;;;24.38;5.20;;;;;;;46.32;16.12;98679.22;5094056;28;20032;-52
2022/07/22 09:04:49;;;;;;;23.00;4.95;;;;;;;46.49;15.98;98673.63;5075587;28;20023;-51
2022/07/22 09:07:27;;;;;;;16.27;4.43;;;;;;;47.66;15.11;98676.47;5075585;28;20065;-52
2022/07/22 09:09:53;;;;;;;35.53;7.15;;;;;;;47.61;15.39;98669.47;5093554;28;20149;-51
2022/07/22 09:12:19;;;;;;;13.02;4.45;;;;;;;47.24;15.27;98675.97;5093615;28;20046;-52
2022/07/22 09:14:47;;;;;;;13.00;4.30;;;;;;;47.71;14.33;98673.06;5093533;28;20065;-52
2022/07/22 09:17:29;;;;;;;16.33;4.43;;;;;;;47.99;14.88;98678.84;5093190;28;20024;-51
2022/07/22 09:19:57;;;;;;;23.48;5.25;;;;;;;48.25;15.02;98675.88;5093201;28;20083;-53
2022/07/22 09:22:38;;;;;;;16.95;4.65;;;;;;;48.02;15.13;98669.59;5093382;28;20030;-53
2022/07/22 09:25:26;;;;;;;24.45;5.95;;;;;;;47.24;15.55;98673.94;5075242;28;20064;-51
2022/07/22 09:27:55;;;;;;;27.88;5.55;;;;;;;46.72;15.58;98672.47;5080182;28;20043;-53
2022/07/22 09:30:26;;;;;;;24.45;5.50;;;;;;;46.98;15.68;98668.44;5093401;28;20351;-52
2022/07/22 09:32:54;;;;;;;14.10;4.88;;;;;;;46.76;15.46;98662.78;5075038;28;20032;-52
2022/07/22 09:35:22;;;;;;;16.17;4.60;;;;;;;46.78;15.30;98665.13;5093123;28;20149;-53
2022/07/22 09:37:55;;;;;;;19.13;4.60;;;;;;;46.89;15.11;98662.81;5093066;28;20038;-51
2022/07/22 09:40:30;;;;;;;41.63;5.78;;;;;;;47.16;15.22;98651.16;5093116;28;20032;-51
2022/07/22 09:43:01;;;;;;;16.17;4.43;;;;;;;47.29;14.99;98642.00;5093116;28;20035;-53
2022/07/22 09:45:30;;;;;;;10.40;3.92;;;;;;;46.87;15.93;98651.38;5093014;28;20020;-53
2022/07/22 09:47:58;;;;;;;27.70;5.00;;;;;;;46.54;16.42;98651.59;5092973;28;20446;-53
2022/07/22 09:50:28;;;;;;;9.02;4.07;;;;;;;46.83;15.51;98650.72;5092796;28;20020;-53
2022/07/22 09:52:55;;;;;;;38.13;5.60;;;;;;;47.55;15.33;98651.03;5092859;28;20095;-53
2022/07/22 09:55:23;;;;;;;8.20;3.92;;;;;;;47.25;15.32;98646.91;5092778;28;20028;-53
2022/07/22 09:57:50;;;;;;;11.30;4.07;;;;;;;47.10;15.35;98646.63;5092768;28;20066;-53
2022/07/22 10:00:21;;;;;;;19.67;4.32;;;;;;;46.75;15.72;98641.03;5074452;28;20036;-53
2022/07/22 10:02:57;;;;;;;9.32;3.80;;;;;;;46.70;15.52;98630.47;5092742;28;20027;-52
2022/07/22 10:05:25;;;;;;;11.55;4.10;;;;;;;46.81;15.33;98628.94;5074430;28;20028;-52
2022/07/22 10:07:52;;;;;;;5.32;3.22;;;;;;;46.87;14.71;98625.56;5092536;28;20065;-53
2022/07/22 10:10:25;;;;;;;30.63;5.03;;;;;;;46.97;15.15;98629.97;5092429;28;20023;-52
2022/07/22 10:12:56;;;;;;;17.45;4.75;;;;;;;46.73;15.20;98619.25;5092556;28;20020;-52
2022/07/22 10:15:24;;;;;;;17.08;4.50;;;;;;;46.56;15.11;98626.16;5092521;28;20039;-52
2022/07/22 10:17:54;;;;;;;38.88;7.07;;;;;;;45.73;15.98;98614.78;5092406;28;20558;-52
2022/07/22 10:20:26;;;;;;;11.18;4.30;;;;;;;45.69;16.54;98616.88;5092136;28;20044;-52
2022/07/22 10:22:57;;;;;;;11.57;3.78;;;;;;;45.94;16.57;98610.59;5074144;28;20036;-50
2022/07/22 10:25:25;;;;;;;12.15;4.00;;;;;;;46.15;16.10;98611.97;5092225;28;20074;-52
2022/07/22 10:28:05;;;;;;;5.95;3.72;;;;;;;46.86;15.29;98599.81;5074019;28;20415;-52
2022/07/22 10:30:35;;;;;;;9.13;4.40;;;;;;;47.73;14.71;98603.84;5091447;28;20137;-51
2022/07/22 10:33:19;;;;;;;7.32;3.60;;;;;;;48.23;13.70;98597.63;5092451;28;20385;-51
2022/07/22 10:36:02;;;;;;;9.48;4.00;;;;;;;48.26;13.90;98607.81;5092050;28;20040;-51
2022/07/22 10:38:30;;;;;;;8.25;3.53;;;;;;;48.01;14.02;98599.22;5092192;28;20078;-52
2022/07/22 10:41:05;;;;;;;8.35;3.95;;;;;;;48.24;13.59;98593.56;5092002;28;20055;-52
2022/07/22 10:43:41;;;;;;;11.50;4.20;;;;;;;48.46;14.19;98596.28;5092249;28;20019;-52
2022/07/22 10:46:06;;;;;;;23.67;4.78;;;;;;;47.93;14.57;98597.19;5073942;28;20031;-52
2022/07/22 10:48:32;;;;;;;14.95;4.43;;;;;;;47.73;14.16;98605.88;5091940;28;20021;-52
2022/07/22 10:51:05;;;;;;;19.08;4.32;;;;;;;47.99;14.31;98590.56;5073648;28;20024;-53
2022/07/22 10:53:52;;;;;;;15.02;4.35;;;;;;;48.19;13.75;98589.41;5073749;28;20035;-51
2022/07/22 10:56:21;;;;;;;9.20;3.55;;;;;;;48.28;13.26;98592.25;5091938;28;20032;-53
2022/07/22 10:58:51;;;;;;;15.65;5.03;;;;;;;48.11;13.06;98586.13;5073705;28;20152;-52
2022/07/22 11:01:20;;;;;;;8.57;3.47;;;;;;;47.88;12.54;98587.41;5091781;28;20051;-52
2022/07/22 11:03:47;;;;;;;35.65;5.35;;;;;;;47.43;13.47;98591.44;5073662;28;20024;-53
2022/07/22 11:06:20;;;;;;;13.23;4.43;;;;;;;47.46;14.16;98590.56;5091781;28;20035;-52
2022/07/22 11:08:50;;;;;;;13.50;3.38;;;;;;;48.12;12.83;98584.13;5073693;28;20028;-52
2022/07/22 11:11:17;;;;;;;10.43;3.95;;;;;;;48.60;13.02;98584.59;5073477;28;20024;-51
2022/07/22 11:13:44;;;;;;;15.02;4.50;;;;;;;48.94;12.33;98577.97;5091696;28;20099;-51
2022/07/22 11:16:21;;;;;;;8.95;3.78;;;;;;;49.31;11.40;98589.09;5091915;28;20055;-52
2022/07/22 11:18:53;;;;;;;14.70;3.90;;;;;;;49.48;11.15;98586.75;5073558;28;20025;-53
2022/07/22 11:21:21;;;;;;;29.35;4.95;;;;;;;49.34;11.47;98579.03;5091681;28;20038;-52
2022/07/22 11:23:49;;;;;;;21.38;3.60;;;;;;;49.16;10.80;98579.81;5091847;28;20436;-51
2022/07/22 11:26:17;;;;;;;11.23;3.63;;;;;;;49.11;11.02;98583.25;5091535;28;20047;-50
2022/07/22 11:28:44;;;;;;;21.58;4.65;;;;;;;48.94;10.85;98577.19;5073431;28;20028;-52